createdAt,value
2019-03-25T00:00:09.839Z,98389.27
2019-03-25T00:02:40.807Z,98387.14
2019-03-25T00:05:11.839Z,98379.50
2019-03-25T00:07:42.915Z,98384.63
2019-03-25T00:10:15.652Z,98385.17
2019-03-25T00:12:46.641Z,98376.61
2019-03-25T00:15:17.896Z,98376.30
2019-03-25T00:17:48.804Z,98381.12
2019-03-25T00:20:19.944Z,98381.39
2019-03-25T00:22:52.446Z,98376.09
2019-03-25T00:25:23.489Z,98367.27
2019-03-25T00:27:54.537Z,98362.90
2019-03-25T00:30:25.536Z,98370.20
2019-03-25T00:32:56.744Z,98368.50
2019-03-25T00:35:27.708Z,98363.83
2019-03-25T00:37:58.738Z,98362.67
2019-03-25T00:40:29.703Z,98356.25
2019-03-25T00:43:00.664Z,98351.95
2019-03-25T00:45:31.966Z,98354.55
2019-03-25T00:48:12.510Z,98353.77
2019-03-25T00:50:47.621Z,98345.57
2019-03-25T00:53:18.628Z,98343.50
2019-03-25T00:55:49.676Z,98337.56
2019-03-25T00:58:20.927Z,98338.56
2019-03-25T01:00:52.418Z,98341.84
2019-03-25T01:03:23.541Z,98342.42
2019-03-25T01:05:54.518Z,98334.85
2019-03-25T01:08:25.628Z,98326.29
2019-03-25T01:10:56.613Z,98329.49
2019-03-25T01:13:27.664Z,98333.48
2019-03-25T01:15:58.596Z,98323.63
2019-03-25T01:18:29.742Z,98328.16
2019-03-25T01:21:00.806Z,98320.52
2019-03-25T01:23:31.788Z,98325.36
2019-03-25T01:26:02.748Z,98327.22
2019-03-25T01:28:33.800Z,98322.48
2019-03-25T01:31:04.861Z,98317.40
2019-03-25T01:33:35.936Z,98318.80
2019-03-25T01:36:06.878Z,98314.12
2019-03-25T01:38:37.886Z,98318.55
2019-03-25T01:41:08.892Z,98317.72
2019-03-25T01:43:39.840Z,98312.58
2019-03-25T01:46:11.048Z,98313.62
2019-03-25T01:48:42.211Z,98309.06
2019-03-25T01:51:13.200Z,98309.78
2019-03-25T01:53:44.446Z,98312.65
2019-03-25T01:56:15.528Z,98309.27
2019-03-25T01:58:48.522Z,98302.91
2019-03-25T02:01:19.481Z,98303.44
2019-03-25T02:03:50.548Z,98304.39
2019-03-25T02:06:21.543Z,98305.00
2019-03-25T02:08:52.514Z,98303.08
2019-03-25T02:11:23.476Z,98305.84
2019-03-25T02:13:54.482Z,98297.25
2019-03-25T02:16:25.628Z,98304.43
2019-03-25T02:18:56.692Z,98307.81
2019-03-25T02:21:27.715Z,98302.59
2019-03-25T02:23:58.925Z,98303.38
2019-03-25T02:26:31.508Z,98300.79
2019-03-25T02:29:02.655Z,98296.14
2019-03-25T02:31:35.116Z,98299.34
2019-03-25T02:34:06.264Z,98292.22
2019-03-25T02:36:38.889Z,98291.97
2019-03-25T02:39:09.967Z,98295.52
2019-03-25T02:41:40.933Z,98289.11
2019-03-25T02:44:11.820Z,98292.24
2019-03-25T02:46:42.733Z,98288.41
2019-03-25T02:49:13.827Z,98288.02
2019-03-25T02:51:44.880Z,98292.38
2019-03-25T02:54:16.337Z,98290.58
2019-03-25T02:56:47.953Z,98295.42
2019-03-25T02:59:18.963Z,98289.91
2019-03-25T03:01:51.538Z,98289.58
2019-03-25T03:04:22.464Z,98294.30
2019-03-25T03:06:53.516Z,98299.89
2019-03-25T03:09:25.067Z,98296.34
2019-03-25T03:11:57.608Z,98292.39
2019-03-25T03:14:28.796Z,98285.93
2019-03-25T03:16:59.783Z,98293.73
2019-03-25T03:19:31.018Z,98290.73
2019-03-25T03:22:02.061Z,98287.30
2019-03-25T03:24:33.115Z,98286.00
2019-03-25T03:27:04.441Z,98287.82
2019-03-25T03:29:35.482Z,98283.70
2019-03-25T03:32:07.557Z,98278.66
2019-03-25T03:34:38.768Z,98276.26
2019-03-25T03:37:09.752Z,98279.89
2019-03-25T03:39:40.814Z,98279.55
2019-03-25T03:42:11.775Z,98272.23
2019-03-25T03:44:42.935Z,98282.62
2019-03-25T03:47:14.322Z,98269.36
2019-03-25T03:49:45.303Z,98273.72
2019-03-25T03:52:16.432Z,98272.82
2019-03-25T03:54:48.031Z,98280.13
2019-03-25T03:57:19.207Z,98276.20
2019-03-25T03:59:51.061Z,98269.09
2019-03-25T04:02:22.392Z,98267.42
2019-03-25T04:04:53.335Z,98269.27
2019-03-25T04:07:24.449Z,98271.12
2019-03-25T04:09:55.494Z,98266.45
2019-03-25T04:12:26.538Z,98275.62
2019-03-25T04:14:58.201Z,98278.73
2019-03-25T04:17:29.304Z,98282.31
2019-03-25T04:20:00.512Z,98292.73
2019-03-25T04:22:31.610Z,98288.58
2019-03-25T04:25:02.669Z,98280.47
2019-03-25T04:27:33.738Z,98277.20
2019-03-25T04:30:05.339Z,98284.56
2019-03-25T04:32:36.333Z,98294.97
2019-03-25T04:35:07.901Z,98288.56
2019-03-25T04:37:39.026Z,98291.23
2019-03-25T04:40:10.529Z,98296.48
2019-03-25T04:42:41.934Z,98306.41
2019-03-25T04:45:13.947Z,98307.38
2019-03-25T04:47:44.979Z,98310.84
2019-03-25T04:50:16.007Z,98301.92
2019-03-25T04:52:47.062Z,98306.28
2019-03-25T04:55:18.025Z,98310.17
2019-03-25T04:57:49.015Z,98315.41
2019-03-25T05:00:23.051Z,98313.28
2019-03-25T05:02:55.959Z,98312.95
2019-03-25T05:05:27.001Z,98313.89
2019-03-25T05:07:58.239Z,98309.16
2019-03-25T05:10:29.375Z,98308.30
2019-03-25T05:13:00.423Z,98300.50
2019-03-25T05:15:31.483Z,98306.47
2019-03-25T05:18:02.438Z,98311.58
2019-03-25T05:20:33.607Z,98307.75
2019-03-25T05:23:04.893Z,98304.34
2019-03-25T05:25:35.990Z,98311.20
2019-03-25T05:28:06.996Z,98306.07
2019-03-25T05:30:38.235Z,98298.41
2019-03-25T05:33:09.333Z,98291.57
2019-03-25T05:35:40.730Z,98284.72
2019-03-25T05:38:14.514Z,98296.30
2019-03-25T05:40:45.718Z,98294.14
2019-03-25T05:43:21.042Z,98291.55
2019-03-25T05:45:53.212Z,98294.98
2019-03-25T05:48:25.047Z,98292.82
2019-03-25T05:50:57.572Z,98289.77
2019-03-25T05:53:31.226Z,98298.33
2019-03-25T05:56:02.296Z,98295.69
2019-03-25T05:58:34.154Z,98296.18
2019-03-25T06:01:05.538Z,98308.13
2019-03-25T06:03:36.600Z,98295.20
2019-03-25T06:06:09.707Z,98291.80
2019-03-25T06:08:40.751Z,98285.68
2019-03-25T06:11:11.813Z,98281.56
2019-03-25T06:13:42.831Z,98268.97
2019-03-25T06:16:13.942Z,98285.72
2019-03-25T06:18:44.904Z,98283.05
2019-03-25T06:21:16.238Z,98274.82
2019-03-25T06:23:47.282Z,98279.28
2019-03-25T06:26:18.263Z,98280.06
2019-03-25T06:28:49.213Z,98279.19
2019-03-25T06:31:20.226Z,98275.45
2019-03-25T06:33:51.286Z,98274.66
2019-03-25T06:36:22.286Z,98281.03
2019-03-25T06:38:53.338Z,98282.73
2019-03-25T06:41:24.369Z,98275.75
2019-03-25T06:43:55.449Z,98276.20
2019-03-25T06:46:26.511Z,98277.31
2019-03-25T06:48:57.400Z,98275.33
2019-03-25T06:51:28.454Z,98280.80
2019-03-25T06:53:59.492Z,98277.59
2019-03-25T06:56:30.805Z,98280.05
2019-03-25T06:59:01.853Z,98275.84
2019-03-25T07:01:32.866Z,98267.12
2019-03-25T07:04:03.961Z,98265.13
2019-03-25T07:06:34.860Z,98266.13
2019-03-25T07:09:07.556Z,98251.80
2019-03-25T07:11:39.614Z,98256.19
2019-03-25T07:14:10.603Z,98238.97
2019-03-25T07:16:41.667Z,98237.91
2019-03-25T07:19:12.700Z,98235.70
2019-03-25T07:21:43.761Z,98248.67
2019-03-25T07:24:14.812Z,98252.58
2019-03-25T07:26:45.772Z,98252.05
2019-03-25T07:29:16.735Z,98239.99
2019-03-25T07:31:47.756Z,98248.61
2019-03-25T07:34:18.784Z,98263.20
2019-03-25T07:36:49.841Z,98240.50
2019-03-25T07:39:21.040Z,98239.95
2019-03-25T07:41:51.918Z,98243.64
2019-03-25T07:44:22.897Z,98243.91
2019-03-25T07:46:53.820Z,98239.67
2019-03-25T07:49:24.735Z,98243.86
2019-03-25T07:51:55.700Z,98230.92
2019-03-25T07:54:26.619Z,98231.85
2019-03-25T07:56:57.593Z,98200.75
2019-03-25T07:59:28.540Z,98203.52
2019-03-25T08:01:59.519Z,98207.07
2019-03-25T08:04:30.416Z,98206.89
2019-03-25T08:07:01.389Z,98210.11
2019-03-25T08:09:32.511Z,98215.15
2019-03-25T08:12:03.691Z,98224.19
2019-03-25T08:14:34.781Z,98205.59
2019-03-25T08:17:06.086Z,98202.48
2019-03-25T08:19:37.171Z,98231.73
2019-03-25T08:22:08.199Z,98208.20
2019-03-25T08:24:39.251Z,98192.94
2019-03-25T08:27:10.298Z,98212.38
2019-03-25T08:29:41.313Z,98220.87
2019-03-25T08:32:12.407Z,98210.67
2019-03-25T08:34:43.430Z,98221.00
2019-03-25T08:37:14.585Z,98224.39
2019-03-25T08:39:45.581Z,98240.42
2019-03-25T08:42:16.665Z,98227.73
2019-03-25T08:44:47.815Z,98238.71
2019-03-25T08:47:18.913Z,98231.41
2019-03-25T08:49:49.979Z,98236.67
2019-03-25T08:52:20.940Z,98259.25
2019-03-25T08:54:52.064Z,98248.28
2019-03-25T08:57:22.949Z,98243.85
2019-03-25T08:59:54.044Z,98241.44
2019-03-25T09:02:24.971Z,98239.62
2019-03-25T09:04:55.990Z,98267.02
2019-03-25T09:07:27.008Z,98264.03
2019-03-25T09:09:58.043Z,98258.60
2019-03-25T09:12:29.012Z,98285.39
2019-03-25T09:14:59.938Z,98278.29
2019-03-25T09:17:30.970Z,98266.64
2019-03-25T09:20:01.857Z,98264.80
2019-03-25T09:22:32.933Z,98235.77
2019-03-25T09:25:05.573Z,98263.28
2019-03-25T09:27:36.585Z,98265.94
2019-03-25T09:30:09.885Z,98264.44
2019-03-25T09:32:40.909Z,98255.30
2019-03-25T09:35:12.019Z,98261.56
2019-03-25T09:37:43.156Z,98256.22
2019-03-25T09:40:14.318Z,98268.88
2019-03-25T09:42:45.392Z,98238.21
2019-03-25T09:45:16.467Z,98276.58
2019-03-25T09:47:47.402Z,98248.88
2019-03-25T09:50:18.566Z,98265.30
2019-03-25T09:52:49.548Z,98262.13
2019-03-25T09:55:20.541Z,98259.59
2019-03-25T09:57:51.508Z,98265.72
2019-03-25T10:00:25.471Z,98246.23
2019-03-25T10:02:56.415Z,98248.36
2019-03-25T10:05:27.652Z,98250.96
2019-03-25T10:07:58.696Z,98243.08
2019-03-25T10:10:29.775Z,98246.05
2019-03-25T10:13:00.930Z,98251.48
2019-03-25T10:15:32.048Z,98250.46
2019-03-25T10:18:03.039Z,98253.72
2019-03-25T10:20:33.972Z,98253.27
2019-03-25T10:23:05.036Z,98249.47
2019-03-25T10:25:36.064Z,98256.14
2019-03-25T10:28:07.172Z,98251.88
2019-03-25T10:30:38.202Z,98249.42
2019-03-25T10:33:09.236Z,98253.01
2019-03-25T10:35:40.366Z,98253.31
2019-03-25T10:38:19.442Z,98249.17
2019-03-25T10:40:44.348Z,98245.10
2019-03-25T10:43:15.336Z,98237.18
2019-03-25T10:45:46.489Z,98225.12
2019-03-25T10:48:17.443Z,98233.20
2019-03-25T10:50:48.399Z,98224.64
2019-03-25T10:53:19.355Z,98230.32
2019-03-25T10:55:50.326Z,98231.33
2019-03-25T10:58:21.447Z,98222.48
2019-03-25T11:00:52.535Z,98217.68
2019-03-25T11:03:23.542Z,98214.32
2019-03-25T11:05:54.494Z,98230.23
2019-03-25T11:08:25.401Z,98232.61
2019-03-25T11:10:56.655Z,98242.72
2019-03-25T11:13:27.719Z,98231.95
2019-03-25T11:15:58.823Z,98237.88
2019-03-25T11:18:29.917Z,98219.65
2019-03-25T11:21:00.927Z,98220.38
2019-03-25T11:23:31.819Z,98230.22
2019-03-25T11:26:02.781Z,98235.20
2019-03-25T11:28:34.082Z,98232.93
2019-03-25T11:31:05.427Z,98234.87
2019-03-25T11:33:36.376Z,98210.29
2019-03-25T11:36:07.420Z,98222.86
2019-03-25T11:38:38.301Z,98227.45
2019-03-25T11:41:09.331Z,98242.61
2019-03-25T11:43:40.339Z,98233.17
2019-03-25T11:46:11.431Z,98243.92
2019-03-25T11:48:42.439Z,98236.68
2019-03-25T11:51:13.600Z,98229.89
2019-03-25T11:53:44.936Z,98222.26
2019-03-25T11:56:15.981Z,98221.42
2019-03-25T11:58:47.081Z,98215.98
2019-03-25T12:01:20.779Z,98217.97
2019-03-25T12:03:51.673Z,98193.86
2019-03-25T12:06:22.733Z,98210.09
2019-03-25T12:08:53.619Z,98215.95
2019-03-25T12:11:24.927Z,98211.20
2019-03-25T12:13:56.131Z,98191.52
2019-03-25T12:16:27.259Z,98181.78
2019-03-25T12:18:58.218Z,98203.33
2019-03-25T12:21:29.174Z,98219.02
2019-03-25T12:24:00.045Z,98267.09
2019-03-25T12:26:30.987Z,98278.75
2019-03-25T12:29:02.090Z,98271.63
2019-03-25T12:31:33.277Z,98289.52
2019-03-25T12:34:04.462Z,98290.04
2019-03-25T12:36:35.669Z,98294.06
2019-03-25T12:39:07.660Z,98293.73
2019-03-25T12:41:38.689Z,98307.41
2019-03-25T12:44:09.602Z,98303.02
2019-03-25T12:46:40.626Z,98298.91
2019-03-25T12:49:11.520Z,98284.75
2019-03-25T12:51:42.449Z,98263.87
2019-03-25T12:54:13.576Z,98238.17
2019-03-25T12:56:44.529Z,98229.08
2019-03-25T12:59:15.546Z,98214.97
2019-03-25T13:01:52.986Z,98218.04
2019-03-25T13:04:19.245Z,98212.39
2019-03-25T13:06:50.325Z,98206.20
2019-03-25T13:09:21.377Z,98210.89
2019-03-25T13:11:55.137Z,98201.58
2019-03-25T13:14:26.581Z,98201.27
2019-03-25T13:16:57.489Z,98207.43
2019-03-25T13:19:28.427Z,98204.73
2019-03-25T13:21:59.443Z,98209.27
2019-03-25T13:24:30.401Z,98213.23
2019-03-25T13:27:01.500Z,98223.86
2019-03-25T13:29:51.763Z,98226.22
2019-03-25T13:32:14.173Z,98235.91
2019-03-25T13:34:45.031Z,98231.39
2019-03-25T13:37:16.130Z,98225.47
2019-03-25T13:39:47.158Z,98235.00
2019-03-25T13:42:20.549Z,98226.19
2019-03-25T13:44:51.621Z,98217.78
2019-03-25T13:47:22.629Z,98218.60
2019-03-25T13:49:53.753Z,98220.16
2019-03-25T13:52:25.282Z,98215.53
2019-03-25T13:54:56.867Z,98203.99
2019-03-25T13:57:27.794Z,98206.55
2019-03-25T14:00:03.527Z,98195.13
2019-03-25T14:02:35.073Z,98176.62
2019-03-25T14:05:06.702Z,98188.27
2019-03-25T14:07:37.842Z,98186.73
2019-03-25T14:10:09.552Z,98175.18
2019-03-25T14:12:40.558Z,98169.57
2019-03-25T14:15:11.935Z,98186.06
2019-03-25T14:17:42.973Z,98187.06
2019-03-25T14:20:14.439Z,98164.21
2019-03-25T14:22:45.443Z,98197.71
2019-03-25T14:25:16.392Z,98223.63
2019-03-25T14:27:47.448Z,98232.53
2019-03-25T14:30:18.578Z,98231.39
2019-03-25T14:32:49.538Z,98238.27
2019-03-25T14:35:20.715Z,98221.12
2019-03-25T14:37:52.900Z,98252.00
2019-03-25T14:40:25.681Z,98257.44
2019-03-25T14:42:56.673Z,98264.39
2019-03-25T14:45:27.710Z,98262.05
2019-03-25T14:47:59.368Z,98262.99
2019-03-25T14:50:30.268Z,98244.17
2019-03-25T14:53:01.643Z,98245.92
2019-03-25T14:55:32.733Z,98237.08
2019-03-25T14:58:04.072Z,98242.98
2019-03-25T15:00:38.111Z,98236.64
2019-03-25T15:03:09.914Z,98232.28
2019-03-25T15:05:40.844Z,98223.15
2019-03-25T15:08:11.980Z,98232.22
2019-03-25T15:10:53.014Z,98224.14
2019-03-25T15:13:16.098Z,98232.05
2019-03-25T15:15:47.160Z,98227.59
2019-03-25T15:18:18.189Z,98232.53
2019-03-25T15:20:52.486Z,98230.39
2019-03-25T15:23:52.508Z,98231.16
2019-03-25T15:26:30.528Z,98232.84
2019-03-25T15:29:01.655Z,98224.22
2019-03-25T15:31:34.130Z,98228.16
2019-03-25T15:34:05.376Z,98229.05
2019-03-25T15:36:38.654Z,98248.52
2019-03-25T15:39:09.736Z,98254.11
2019-03-25T15:41:40.695Z,98267.27
2019-03-25T15:44:11.914Z,98244.12
2019-03-25T15:46:43.244Z,98262.26
2019-03-25T15:49:14.592Z,98265.47
2019-03-25T15:51:45.654Z,98269.02
2019-03-25T15:54:16.727Z,98271.50
2019-03-25T15:56:47.714Z,98269.28
2019-03-25T15:59:19.311Z,98285.47
2019-03-25T16:01:50.807Z,98281.91
2019-03-25T16:04:22.377Z,98285.97
2019-03-25T16:06:54.151Z,98293.81
2019-03-25T16:09:25.589Z,98294.31
2019-03-25T16:11:56.763Z,98310.88
2019-03-25T16:14:28.223Z,98307.38
2019-03-25T16:17:00.642Z,98311.95
2019-03-25T16:19:34.428Z,98300.09
2019-03-25T16:22:06.038Z,98310.94
2019-03-25T16:24:37.129Z,98307.56
2019-03-25T16:27:08.187Z,98294.52
2019-03-25T16:29:39.284Z,98302.53
2019-03-25T16:32:10.534Z,98295.63
2019-03-25T16:34:41.562Z,98312.53
2019-03-25T16:37:13.575Z,98312.00
2019-03-25T16:39:44.588Z,98301.53
2019-03-25T16:42:15.521Z,98312.95
2019-03-25T16:44:46.832Z,98322.35
2019-03-25T16:47:18.072Z,98309.22
2019-03-25T16:49:49.301Z,98325.40
2019-03-25T16:52:20.185Z,98330.93
2019-03-25T16:54:51.439Z,98336.55
2019-03-25T16:57:22.458Z,98343.69
2019-03-25T16:59:53.591Z,98346.56
2019-03-25T17:02:24.643Z,98346.25
2019-03-25T17:04:55.946Z,98355.98
2019-03-25T17:07:27.065Z,98348.98
2019-03-25T17:09:58.028Z,98358.03
2019-03-25T17:12:29.057Z,98361.73
2019-03-25T17:15:00.156Z,98364.26
2019-03-25T17:17:31.381Z,98379.17
2019-03-25T17:20:02.564Z,98378.97
2019-03-25T17:22:33.596Z,98390.38
2019-03-25T17:25:06.527Z,98392.26
2019-03-25T17:27:37.753Z,98396.22
2019-03-25T17:30:14.442Z,98395.55
2019-03-25T17:32:45.461Z,98393.45
2019-03-25T17:35:16.707Z,98407.79
2019-03-25T17:37:50.201Z,98404.48
2019-03-25T17:40:21.371Z,98408.06
2019-03-25T17:42:53.643Z,98412.55
2019-03-25T17:45:24.783Z,98421.30
2019-03-25T17:47:55.867Z,98419.25
2019-03-25T17:50:26.837Z,98430.97
2019-03-25T17:52:58.571Z,98434.44
2019-03-25T17:55:29.815Z,98437.42
2019-03-25T17:58:02.588Z,98445.06
2019-03-25T18:00:45.323Z,98447.61
2019-03-25T18:03:16.453Z,98447.09
2019-03-25T18:05:47.657Z,98450.89
2019-03-25T18:08:18.638Z,98453.41
2019-03-25T18:10:49.668Z,98455.50
2019-03-25T18:13:22.510Z,98455.02
2019-03-25T18:15:53.778Z,98458.39
2019-03-25T18:18:25.007Z,98463.97
2019-03-25T18:20:56.121Z,98461.36
2019-03-25T18:23:27.136Z,98470.35
2019-03-25T18:25:58.271Z,98469.03
2019-03-25T18:28:29.525Z,98486.75
2019-03-25T18:31:00.594Z,98489.47
2019-03-25T18:33:31.536Z,98477.63
2019-03-25T18:36:02.696Z,98496.33
2019-03-25T18:38:34.181Z,98499.92
2019-03-25T18:41:05.888Z,98498.80
2019-03-25T18:43:37.272Z,98501.11
2019-03-25T18:46:08.307Z,98501.16
2019-03-25T18:48:39.417Z,98506.73
2019-03-25T18:51:10.757Z,98506.28
2019-03-25T18:53:42.066Z,98508.02
2019-03-25T18:56:13.091Z,98515.74
2019-03-25T18:58:44.065Z,98518.73
2019-03-25T19:01:15.274Z,98526.52
2019-03-25T19:03:46.333Z,98521.00
2019-03-25T19:06:17.340Z,98527.02
2019-03-25T19:08:49.233Z,98532.23
2019-03-25T19:11:30.802Z,98533.97
2019-03-25T19:13:53.871Z,98543.05
2019-03-25T19:16:25.010Z,98545.14
2019-03-25T19:18:56.044Z,98545.63
2019-03-25T19:21:27.757Z,98554.22
2019-03-25T19:23:59.262Z,98552.02
2019-03-25T19:26:30.334Z,98556.72
2019-03-25T19:29:01.570Z,98559.76
2019-03-25T19:31:32.891Z,98564.55
2019-03-25T19:34:03.881Z,98576.22
2019-03-25T19:36:35.068Z,98579.70
2019-03-25T19:39:07.304Z,98585.73
2019-03-25T19:41:38.596Z,98584.50
2019-03-25T19:44:10.285Z,98589.33
2019-03-25T19:46:42.193Z,98602.22
2019-03-25T19:49:13.254Z,98616.44
2019-03-25T19:51:44.294Z,98623.79
2019-03-25T19:54:15.414Z,98623.40
2019-03-25T19:56:46.988Z,98631.98
2019-03-25T19:59:18.732Z,98630.66
2019-03-25T20:01:49.771Z,98634.08
2019-03-25T20:04:20.797Z,98651.18
2019-03-25T20:06:52.058Z,98655.47
2019-03-25T20:09:24.743Z,98656.33
2019-03-25T20:11:58.672Z,98658.52
2019-03-25T20:14:40.444Z,98661.95
2019-03-25T20:17:11.432Z,98665.42
2019-03-25T20:19:42.506Z,98665.89
2019-03-25T20:22:13.661Z,98671.91
2019-03-25T20:24:44.672Z,98674.05
2019-03-25T20:27:15.668Z,98675.77
2019-03-25T20:29:48.452Z,98675.73
2019-03-25T20:32:31.283Z,98679.12
2019-03-25T20:34:52.703Z,98675.22
2019-03-25T20:37:23.739Z,98683.84
2019-03-25T20:39:54.833Z,98687.67
2019-03-25T20:42:25.798Z,98688.96
2019-03-25T20:44:56.978Z,98688.53
2019-03-25T20:47:27.945Z,98687.72
2019-03-25T20:49:58.994Z,98689.86
2019-03-25T20:52:30.246Z,98688.58
2019-03-25T20:55:01.181Z,98691.58
2019-03-25T20:57:32.202Z,98694.19
2019-03-25T21:00:03.350Z,98705.78
2019-03-25T21:02:44.917Z,98706.64
2019-03-25T21:05:09.010Z,98714.80
2019-03-25T21:07:40.045Z,98710.94
2019-03-25T21:10:11.124Z,98715.27
2019-03-25T21:12:42.136Z,98723.81
2019-03-25T21:15:13.846Z,98713.94
2019-03-25T21:17:44.809Z,98719.09
2019-03-25T21:20:15.930Z,98728.11
2019-03-25T21:22:47.155Z,98728.54
2019-03-25T21:25:18.138Z,98725.93
2019-03-25T21:27:49.016Z,98734.09
2019-03-25T21:30:19.994Z,98734.91
2019-03-25T21:32:58.035Z,98727.15
2019-03-25T21:35:24.034Z,98724.14
2019-03-25T21:37:55.162Z,98734.02
2019-03-25T21:40:26.185Z,98743.44
2019-03-25T21:42:57.144Z,98746.44
2019-03-25T21:45:28.014Z,98744.33
2019-03-25T21:47:59.759Z,98743.50
2019-03-25T21:50:31.370Z,98745.69
2019-03-25T21:53:02.365Z,98754.75
2019-03-25T21:55:33.309Z,98758.23
2019-03-25T21:58:04.435Z,98765.11
2019-03-25T22:00:35.518Z,98755.70
2019-03-25T22:03:11.993Z,98769.44
2019-03-25T22:05:39.203Z,98773.73
2019-03-25T22:08:10.400Z,98772.88
2019-03-25T22:10:42.987Z,98778.86
2019-03-25T22:13:14.423Z,98779.73
2019-03-25T22:15:45.453Z,98784.45
2019-03-25T22:18:16.744Z,98786.58
2019-03-25T22:20:47.979Z,98783.59
2019-03-25T22:23:18.950Z,98787.86
2019-03-25T22:25:49.840Z,98786.12
2019-03-25T22:28:20.827Z,98790.83
2019-03-25T22:30:51.767Z,98797.64
2019-03-25T22:33:26.101Z,98802.79
2019-03-25T22:35:55.425Z,98805.76
2019-03-25T22:38:29.314Z,98803.59
2019-03-25T22:41:00.367Z,98798.00
2019-03-25T22:43:31.420Z,98800.53
2019-03-25T22:46:02.391Z,98809.50
2019-03-25T22:48:33.939Z,98815.06
2019-03-25T22:51:05.058Z,98811.63
2019-03-25T22:53:36.171Z,98817.65
2019-03-25T22:56:07.135Z,98822.36
2019-03-25T22:58:38.246Z,98821.92
2019-03-25T23:01:09.297Z,98820.17
2019-03-25T23:03:40.360Z,98822.78
2019-03-25T23:06:11.348Z,98828.77
2019-03-25T23:08:42.309Z,98825.33
2019-03-25T23:11:14.110Z,98831.31
2019-03-25T23:13:45.166Z,98838.56
2019-03-25T23:16:16.172Z,98840.23
2019-03-25T23:18:47.309Z,98836.78
2019-03-25T23:21:18.302Z,98844.91
2019-03-25T23:23:49.490Z,98839.33
2019-03-25T23:26:20.616Z,98844.89
2019-03-25T23:28:51.888Z,98843.61
2019-03-25T23:31:23.130Z,98849.20
2019-03-25T23:33:54.120Z,98849.66
2019-03-25T23:36:25.200Z,98856.52
2019-03-25T23:38:56.199Z,98856.94
2019-03-25T23:41:27.197Z,98870.63
2019-03-25T23:43:58.224Z,98871.01
2019-03-25T23:46:29.222Z,98879.16
2019-03-25T23:49:00.281Z,98878.33
2019-03-25T23:51:31.176Z,98886.96
2019-03-25T23:56:51.149Z,98890.80
2019-03-25T23:59:22.122Z,98892.03
